Time;durP1;ratioP1;P1;durP2;ratioP2;P2;SDS_P1;SDS_P2;PMS_P1;PMS_P2;Temp;Humidity;BMP_temperature;BMP_pressure;BME280_temperature;BME280_humidity;BME280_pressure;Samples;Min_cycle;Max_cycle;Signal;HPM_P1;HPM_P2
2023/09/17 00:02:20;;;;;;;14.50;13.10;;;;;;;;;;5060369;28;20017;-75
2023/09/17 00:04:45;;;;;;;15.35;14.13;;;;;;;;;;5061765;28;20013;-77
2023/09/17 00:07:11;;;;;;;14.82;13.63;;;;;;;;;;5062316;28;20031;-77
2023/09/17 00:09:36;;;;;;;14.82;13.52;;;;;;;;;;5062038;28;20028;-78
2023/09/17 00:12:02;;;;;;;15.88;14.48;;;;;;;;;;5062110;28;20081;-78
2023/09/17 00:14:27;;;;;;;14.52;13.32;;;;;;;;;;5061883;28;20059;-77
2023/09/17 00:16:53;;;;;;;16.50;14.98;;;;;;;;;;5062464;28;20060;-77
2023/09/17 00:19:19;;;;;;;15.82;14.50;;;;;;;;;;5062185;28;20040;-77
2023/09/17 00:21:44;;;;;;;15.77;14.38;;;;;;;;;;5065965;28;20454;-74
2023/09/17 00:24:10;;;;;;;16.00;14.57;;;;;;;;;;5066014;28;20052;-74
2023/09/17 00:26:35;;;;;;;15.63;14.13;;;;;;;;;;5065363;28;20036;-76
2023/09/17 00:29:00;;;;;;;20.98;18.90;;;;;;;;;;5066758;28;20056;-76
2023/09/17 00:31:27;;;;;;;28.98;26.48;;;;;;;;;;5066093;28;20047;-75
2023/09/17 00:33:52;;;;;;;28.27;25.67;;;;;;;;;;5065230;28;20020;-75
2023/09/17 00:36:19;;;;;;;20.50;18.73;;;;;;;;;;5059977;28;20028;-77
2023/09/17 00:38:44;;;;;;;17.00;15.43;;;;;;;;;;5058390;28;20422;-77
2023/09/17 00:41:09;;;;;;;16.42;14.73;;;;;;;;;;5064095;28;20082;-77
2023/09/17 00:43:35;;;;;;;15.73;14.10;;;;;;;;;;5064109;28;20024;-74
2023/09/17 00:46:01;;;;;;;15.57;13.95;;;;;;;;;;5064662;28;20029;-77
2023/09/17 00:48:26;;;;;;;14.95;13.70;;;;;;;;;;5064558;28;20493;-75
2023/09/17 00:50:52;;;;;;;15.95;14.52;;;;;;;;;;5065171;28;20184;-75
2023/09/17 00:53:18;;;;;;;15.98;14.57;;;;;;;;;;5065240;28;20020;-73
2023/09/17 00:55:43;;;;;;;16.33;14.80;;;;;;;;;;5065452;28;20419;-75
2023/09/17 00:58:09;;;;;;;21.15;13.88;;;;;;;;;;5065155;28;20066;-76
2023/09/17 01:00:38;;;;;;;16.92;15.13;;;;;;;;;;5064285;28;20028;-76
2023/09/17 01:03:04;;;;;;;16.38;14.88;;;;;;;;;;5051248;28;20028;-75
2023/09/17 01:05:37;;;;;;;16.52;14.95;;;;;;;;;;5064948;28;20113;-75
2023/09/17 01:08:11;;;;;;;15.15;13.95;;;;;;;;;;5065649;28;20075;-75
2023/09/17 01:10:39;;;;;;;17.35;15.50;;;;;;;;;;5064685;28;20085;-76
2023/09/17 01:13:05;;;;;;;15.88;14.48;;;;;;;;;;5064601;28;20381;-77
2023/09/17 01:15:30;;;;;;;16.55;14.85;;;;;;;;;;5064733;28;20050;-77
2023/09/17 01:17:57;;;;;;;17.90;16.35;;;;;;;;;;5065452;28;20048;-75
2023/09/17 01:20:29;;;;;;;17.98;16.27;;;;;;;;;;5064854;28;20028;-76
2023/09/17 01:22:57;;;;;;;17.75;16.17;;;;;;;;;;5052195;28;20028;-76
2023/09/17 01:25:49;;;;;;;18.65;16.92;;;;;;;;;;5063012;28;20401;-76
2023/09/17 01:28:14;;;;;;;20.15;18.25;;;;;;;;;;5055211;28;20044;-77
2023/09/17 01:30:41;;;;;;;19.13;17.38;;;;;;;;;;5063642;28;20086;-78
2023/09/17 01:33:09;;;;;;;18.98;17.08;;;;;;;;;;5063870;28;20110;-77
2023/09/17 01:35:37;;;;;;;17.92;16.23;;;;;;;;;;5065025;28;20024;-76
2023/09/17 01:38:05;;;;;;;18.73;16.98;;;;;;;;;;5061136;28;20036;-77
2023/09/17 01:40:31;;;;;;;16.77;15.27;;;;;;;;;;5056780;28;20023;-77
2023/09/17 01:42:57;;;;;;;18.25;16.52;;;;;;;;;;5064439;28;20078;-75
2023/09/17 01:45:23;;;;;;;17.90;16.33;;;;;;;;;;5063456;28;20393;-76
2023/09/17 01:47:49;;;;;;;18.27;16.52;;;;;;;;;;5057019;28;20107;-74
2023/09/17 01:50:16;;;;;;;18.02;16.23;;;;;;;;;;5051469;28;20031;-76
2023/09/17 01:52:43;;;;;;;19.02;17.23;;;;;;;;;;5057954;28;21178;-75
2023/09/17 01:55:08;;;;;;;17.67;16.08;;;;;;;;;;5064320;28;20027;-75
2023/09/17 01:57:34;;;;;;;18.35;16.20;;;;;;;;;;5065287;28;20143;-74
2023/09/17 01:59:59;;;;;;;19.98;14.73;;;;;;;;;;5063820;28;20355;-76
2023/09/17 02:02:24;;;;;;;21.75;15.57;;;;;;;;;;5063279;28;20036;-75
2023/09/17 02:04:50;;;;;;;18.95;15.05;;;;;;;;;;5050244;28;20086;-74
2023/09/17 02:07:16;;;;;;;17.38;15.57;;;;;;;;;;5062771;28;20032;-76
2023/09/17 02:09:41;;;;;;;20.08;14.80;;;;;;;;;;5062875;28;20021;-75
2023/09/17 02:12:07;;;;;;;19.23;14.90;;;;;;;;;;5053573;28;20043;-74
2023/09/17 02:14:32;;;;;;;17.38;15.73;;;;;;;;;;5063226;28;20495;-75
2023/09/17 02:16:57;;;;;;;17.67;15.93;;;;;;;;;;5063682;28;20032;-75
2023/09/17 02:19:25;;;;;;;18.70;16.77;;;;;;;;;;5060441;28;20024;-74
2023/09/17 02:21:51;;;;;;;17.92;16.30;;;;;;;;;;5061487;28;21359;-74
2023/09/17 02:24:16;;;;;;;18.10;16.52;;;;;;;;;;5061767;28;20035;-75
2023/09/17 02:26:41;;;;;;;19.33;17.55;;;;;;;;;;5063582;28;20339;-76
2023/09/17 02:29:07;;;;;;;20.40;16.63;;;;;;;;;;5063163;28;20024;-74
2023/09/17 02:31:32;;;;;;;18.85;17.05;;;;;;;;;;5063186;28;20040;-74
2023/09/17 02:33:58;;;;;;;19.45;17.70;;;;;;;;;;5062937;28;20478;-75
2023/09/17 02:36:23;;;;;;;18.35;16.42;;;;;;;;;;5062134;28;20056;-76
2023/09/17 02:38:48;;;;;;;18.10;16.20;;;;;;;;;;5051009;28;20333;-75
2023/09/17 02:41:14;;;;;;;20.75;16.73;;;;;;;;;;5063778;28;20024;-77
2023/09/17 02:43:39;;;;;;;18.35;16.50;;;;;;;;;;5061418;28;20124;-75
2023/09/17 02:46:05;;;;;;;18.75;16.95;;;;;;;;;;5063864;28;20032;-76
2023/09/17 02:48:35;;;;;;;22.05;18.20;;;;;;;;;;5056897;28;20106;-76
2023/09/17 02:51:02;;;;;;;22.27;20.30;;;;;;;;;;5057267;28;20044;-76
2023/09/17 02:53:27;;;;;;;19.83;17.92;;;;;;;;;;5056865;28;20020;-75
2023/09/17 02:55:54;;;;;;;20.35;17.83;;;;;;;;;;5057905;28;20016;-76
2023/09/17 02:58:19;;;;;;;19.77;17.40;;;;;;;;;;5052064;28;20479;-75
2023/09/17 03:00:45;;;;;;;19.40;17.65;;;;;;;;;;5060833;28;20046;-75
2023/09/17 03:03:10;;;;;;;21.00;19.30;;;;;;;;;;5063024;28;20067;-75
2023/09/17 03:05:38;;;;;;;19.88;18.13;;;;;;;;;;5062560;28;20495;-75
2023/09/17 03:08:05;;;;;;;19.80;18.10;;;;;;;;;;5062301;28;20044;-74
2023/09/17 03:10:32;;;;;;;20.33;18.20;;;;;;;;;;5059659;28;20028;-74
2023/09/17 03:12:57;;;;;;;21.20;19.40;;;;;;;;;;5062199;28;20123;-74
2023/09/17 03:15:22;;;;;;;18.65;16.85;;;;;;;;;;5061263;28;20123;-76
2023/09/17 03:17:48;;;;;;;20.35;16.23;;;;;;;;;;5062192;28;20056;-75
2023/09/17 03:20:14;;;;;;;18.48;15.52;;;;;;;;;;5061658;28;20439;-74
2023/09/17 03:22:43;;;;;;;17.60;15.57;;;;;;;;;;5061413;28;20458;-78
2023/09/17 03:25:08;;;;;;;21.25;15.88;;;;;;;;;;5060438;28;20127;-75
2023/09/17 03:27:34;;;;;;;18.40;16.50;;;;;;;;;;5062617;28;20115;-75
2023/09/17 03:29:59;;;;;;;17.80;15.75;;;;;;;;;;5063356;28;20364;-75
2023/09/17 03:32:25;;;;;;;17.98;16.15;;;;;;;;;;5061165;28;20113;-75
2023/09/17 03:34:50;;;;;;;19.05;17.25;;;;;;;;;;5062236;28;20067;-76
2023/09/17 03:37:16;;;;;;;18.67;16.05;;;;;;;;;;5063332;28;20039;-75
2023/09/17 03:39:41;;;;;;;17.08;15.27;;;;;;;;;;5050922;28;20670;-75
2023/09/17 03:42:07;;;;;;;20.05;15.65;;;;;;;;;;5063589;28;20433;-76
2023/09/17 03:44:33;;;;;;;17.50;16.00;;;;;;;;;;5050118;28;20032;-77
2023/09/17 03:46:58;;;;;;;17.95;16.27;;;;;;;;;;5063785;28;20096;-76
2023/09/17 03:49:26;;;;;;;20.00;16.55;;;;;;;;;;5061366;28;20439;-76
2023/09/17 03:51:51;;;;;;;17.65;15.88;;;;;;;;;;5060320;28;20035;-77
2023/09/17 03:54:17;;;;;;;19.52;17.58;;;;;;;;;;5062384;28;20031;-76
2023/09/17 03:56:43;;;;;;;18.83;16.58;;;;;;;;;;5066147;28;20359;-75
2023/09/17 03:59:09;;;;;;;19.40;17.58;;;;;;;;;;5065570;28;20109;-76
2023/09/17 04:01:34;;;;;;;20.48;18.38;;;;;;;;;;5066277;28;20111;-75
2023/09/17 04:04:00;;;;;;;20.30;17.77;;;;;;;;;;5066091;28;20025;-76
2023/09/17 04:06:27;;;;;;;18.83;17.15;;;;;;;;;;5065800;28;20321;-76
2023/09/17 04:08:53;;;;;;;19.13;16.52;;;;;;;;;;5065362;28;20451;-75
2023/09/17 04:11:19;;;;;;;22.40;18.10;;;;;;;;;;5066740;28;20036;-80
2023/09/17 04:13:44;;;;;;;19.38;17.50;;;;;;;;;;5066756;28;20158;-76
2023/09/17 04:16:10;;;;;;;21.27;18.90;;;;;;;;;;5066079;28;20182;-75
2023/09/17 04:18:36;;;;;;;20.02;17.95;;;;;;;;;;5064679;28;20028;-74
2023/09/17 04:21:01;;;;;;;19.30;17.45;;;;;;;;;;5065347;28;20036;-78
2023/09/17 04:23:26;;;;;;;23.10;18.67;;;;;;;;;;5067131;28;20032;-76
2023/09/17 04:25:53;;;;;;;20.40;17.88;;;;;;;;;;5065512;28;20032;-77
2023/09/17 04:28:19;;;;;;;21.95;18.75;;;;;;;;;;5064651;28;20036;-78
2023/09/17 04:30:44;;;;;;;19.52;17.33;;;;;;;;;;5065560;28;20039;-78
2023/09/17 04:33:10;;;;;;;17.65;15.85;;;;;;;;;;5059517;28;20458;-77
2023/09/17 04:35:35;;;;;;;18.60;16.80;;;;;;;;;;5059023;28;20035;-78
2023/09/17 04:38:00;;;;;;;18.65;16.90;;;;;;;;;;5064332;28;20540;-76
2023/09/17 04:40:28;;;;;;;18.48;16.67;;;;;;;;;;5064305;28;20032;-77
2023/09/17 04:42:53;;;;;;;20.08;17.17;;;;;;;;;;5063969;28;20124;-76
2023/09/17 04:45:39;;;;;;;21.98;17.85;;;;;;;;;;5065024;28;20189;-77
2023/09/17 04:48:04;;;;;;;25.70;17.58;;;;;;;;;;5063968;28;20048;-76
2023/09/17 04:50:30;;;;;;;19.25;17.38;;;;;;;;;;5065752;28;20028;-77
2023/09/17 04:52:56;;;;;;;18.83;17.13;;;;;;;;;;5064461;28;20032;-77
2023/09/17 04:55:21;;;;;;;20.27;18.27;;;;;;;;;;5063228;28;20032;-76
2023/09/17 04:57:47;;;;;;;18.85;17.02;;;;;;;;;;5065610;28;20093;-75
2023/09/17 05:00:12;;;;;;;21.48;19.40;;;;;;;;;;5063581;28;21211;-77
2023/09/17 05:02:41;;;;;;;22.15;18.45;;;;;;;;;;5049828;28;20016;-75
2023/09/17 05:05:06;;;;;;;25.38;22.73;;;;;;;;;;5055088;28;20025;-77
2023/09/17 05:07:32;;;;;;;28.20;25.17;;;;;;;;;;5063920;28;20054;-78
2023/09/17 05:09:57;;;;;;;26.27;23.60;;;;;;;;;;5059045;28;20028;-77
2023/09/17 05:12:23;;;;;;;31.58;26.73;;;;;;;;;;5050558;28;20044;-77
2023/09/17 05:14:48;;;;;;;25.80;23.20;;;;;;;;;;5056305;28;20119;-77
2023/09/17 05:17:13;;;;;;;23.10;20.95;;;;;;;;;;5050496;28;20032;-75
2023/09/17 05:19:39;;;;;;;23.50;21.00;;;;;;;;;;5072419;27;20031;-77
2023/09/17 05:22:04;;;;;;;21.27;19.23;;;;;;;;;;5051942;28;20025;-77
2023/09/17 05:24:30;;;;;;;21.60;19.48;;;;;;;;;;5050268;28;20055;-79
2023/09/17 05:26:55;;;;;;;21.98;19.98;;;;;;;;;;5051380;28;20440;-78
2023/09/17 05:29:20;;;;;;;23.65;21.35;;;;;;;;;;5054115;28;20036;-76
2023/09/17 05:31:46;;;;;;;20.88;18.98;;;;;;;;;;5050105;28;20036;-77
2023/09/17 05:34:12;;;;;;;22.63;20.42;;;;;;;;;;5050861;28;21600;-76
2023/09/17 05:36:37;;;;;;;21.48;19.48;;;;;;;;;;5058566;28;20033;-76
2023/09/17 05:39:03;;;;;;;21.50;19.20;;;;;;;;;;5063688;28;20024;-76
2023/09/17 05:41:28;;;;;;;21.33;19.30;;;;;;;;;;5063957;28;20075;-76
2023/09/17 05:43:53;;;;;;;20.33;18.45;;;;;;;;;;5064205;28;20035;-78
2023/09/17 05:46:18;;;;;;;25.67;23.35;;;;;;;;;;5063251;28;20036;-75
2023/09/17 05:48:44;;;;;;;23.90;21.90;;;;;;;;;;5056953;28;20052;-75
2023/09/17 05:51:09;;;;;;;24.23;21.63;;;;;;;;;;5060160;28;20440;-75
2023/09/17 05:53:35;;;;;;;24.23;22.05;;;;;;;;;;5063644;28;20059;-75
2023/09/17 05:56:01;;;;;;;21.40;19.60;;;;;;;;;;5052472;28;20103;-76
2023/09/17 05:58:26;;;;;;;22.98;20.98;;;;;;;;;;5051519;28;20077;-78
2023/09/17 06:00:53;;;;;;;20.42;18.73;;;;;;;;;;5063893;28;20392;-76
2023/09/17 06:03:18;;;;;;;19.50;17.90;;;;;;;;;;5064379;28;20075;-75
2023/09/17 06:05:44;;;;;;;19.80;18.02;;;;;;;;;;5063934;28;20440;-76
2023/09/17 06:08:09;;;;;;;20.63;18.88;;;;;;;;;;5064538;28;20056;-76
2023/09/17 06:10:34;;;;;;;22.02;18.52;;;;;;;;;;5065175;28;20332;-77
2023/09/17 06:13:00;;;;;;;22.00;20.10;;;;;;;;;;5064088;28;20028;-77
2023/09/17 06:15:25;;;;;;;20.67;18.83;;;;;;;;;;5064180;28;20028;-77
2023/09/17 06:17:51;;;;;;;21.30;19.40;;;;;;;;;;5054001;28;20451;-78
2023/09/17 06:20:17;;;;;;;19.60;17.90;;;;;;;;;;5049017;28;20367;-80
2023/09/17 06:22:43;;;;;;;20.92;19.13;;;;;;;;;;5048897;28;20050;-77
2023/09/17 06:25:08;;;;;;;19.85;18.05;;;;;;;;;;5047341;28;20035;-75
2023/09/17 06:27:34;;;;;;;20.80;18.83;;;;;;;;;;5049131;28;20485;-77
2023/09/17 06:30:00;;;;;;;19.38;17.65;;;;;;;;;;5049071;28;20151;-76
2023/09/17 06:32:25;;;;;;;18.42;16.88;;;;;;;;;;5048630;28;20104;-76
2023/09/17 06:34:51;;;;;;;24.42;21.95;;;;;;;;;;5053683;28;21150;-77
2023/09/17 06:37:16;;;;;;;20.30;18.20;;;;;;;;;;5062996;28;20036;-78
2023/09/17 06:39:42;;;;;;;19.23;17.52;;;;;;;;;;5063201;28;20036;-77
2023/09/17 06:42:07;;;;;;;18.98;17.38;;;;;;;;;;5050795;28;20459;-79
2023/09/17 06:44:32;;;;;;;18.30;16.65;;;;;;;;;;5051154;28;20427;-77
2023/09/17 06:46:58;;;;;;;19.40;17.63;;;;;;;;;;5054792;28;20655;-76
2023/09/17 06:49:23;;;;;;;19.00;17.25;;;;;;;;;;5048900;28;20028;-78
2023/09/17 06:51:51;;;;;;;17.58;16.08;;;;;;;;;;5062518;28;20047;-77
2023/09/17 06:54:17;;;;;;;18.83;17.17;;;;;;;;;;5052310;28;20025;-78
2023/09/17 06:56:42;;;;;;;19.80;18.00;;;;;;;;;;5047608;28;20027;-77
2023/09/17 06:59:08;;;;;;;21.52;19.52;;;;;;;;;;5048157;28;20033;-77
2023/09/17 07:01:33;;;;;;;19.85;18.05;;;;;;;;;;5050523;28;20039;-77
2023/09/17 07:03:58;;;;;;;21.50;19.55;;;;;;;;;;5049092;28;20028;-77
2023/09/17 07:06:24;;;;;;;19.58;17.92;;;;;;;;;;5048644;28;20028;-77
2023/09/17 07:08:49;;;;;;;18.73;17.13;;;;;;;;;;5049110;28;20024;-75
2023/09/17 07:11:15;;;;;;;17.75;16.20;;;;;;;;;;5048018;28;20039;-76
2023/09/17 07:13:40;;;;;;;19.17;17.27;;;;;;;;;;5047069;28;20028;-76
2023/09/17 07:16:06;;;;;;;18.80;16.92;;;;;;;;;;5048262;28;20035;-77
2023/09/17 07:18:31;;;;;;;16.73;15.15;;;;;;;;;;5047878;28;20111;-78
2023/09/17 07:20:57;;;;;;;18.35;16.42;;;;;;;;;;5052521;28;20089;-78
2023/09/17 07:23:23;;;;;;;16.65;15.15;;;;;;;;;;5047517;28;20314;-77
2023/09/17 07:25:50;;;;;;;16.25;13.70;;;;;;;;;;5048184;28;20464;-76
2023/09/17 07:28:15;;;;;;;17.42;15.65;;;;;;;;;;5047290;28;20020;-77
2023/09/17 07:30:40;;;;;;;16.83;15.32;;;;;;;;;;5048337;28;20027;-76
2023/09/17 07:33:06;;;;;;;17.17;15.57;;;;;;;;;;5047959;28;20039;-76
2023/09/17 07:35:32;;;;;;;17.88;16.27;;;;;;;;;;5047531;28;20027;-74
2023/09/17 07:37:59;;;;;;;15.85;14.23;;;;;;;;;;5047694;28;20440;-77
2023/09/17 07:40:24;;;;;;;16.63;15.07;;;;;;;;;;5052812;28;20028;-75
2023/09/17 07:42:49;;;;;;;17.17;15.68;;;;;;;;;;5054924;28;20421;-75
2023/09/17 07:45:15;;;;;;;15.73;14.27;;;;;;;;;;5047577;28;20024;-76
2023/09/17 07:47:40;;;;;;;16.63;15.13;;;;;;;;;;5048388;28;20049;-76
2023/09/17 07:50:06;;;;;;;15.90;14.32;;;;;;;;;;5047438;28;20028;-75
2023/09/17 07:52:32;;;;;;;15.27;13.85;;;;;;;;;;5047026;28;20447;-77
2023/09/17 07:54:57;;;;;;;15.35;14.05;;;;;;;;;;5046144;28;20024;-74
2023/09/17 07:57:23;;;;;;;16.17;14.57;;;;;;;;;;5047928;28;20362;-74
2023/09/17 07:59:49;;;;;;;15.80;14.30;;;;;;;;;;5047933;28;20036;-76
2023/09/17 08:02:14;;;;;;;15.60;14.27;;;;;;;;;;5046204;28;20106;-75
2023/09/17 08:04:40;;;;;;;15.00;13.65;;;;;;;;;;5045667;28;20030;-76
2023/09/17 08:07:05;;;;;;;16.00;14.50;;;;;;;;;;5045504;28;20047;-77
2023/09/17 08:09:31;;;;;;;15.07;13.68;;;;;;;;;;5048042;28;20174;-75
2023/09/17 08:11:56;;;;;;;14.88;13.43;;;;;;;;;;5047691;28;20051;-74
2023/09/17 08:14:22;;;;;;;15.38;13.82;;;;;;;;;;5045127;28;20047;-77
2023/09/17 08:16:48;;;;;;;14.40;13.00;;;;;;;;;;5046007;28;20470;-77
2023/09/17 08:19:14;;;;;;;15.52;14.05;;;;;;;;;;5044386;28;20036;-75
2023/09/17 08:21:39;;;;;;;15.25;13.75;;;;;;;;;;5043803;28;20372;-77
2023/09/17 08:24:05;;;;;;;13.48;12.27;;;;;;;;;;5047905;28;20024;-77
2023/09/17 08:26:30;;;;;;;13.10;12.00;;;;;;;;;;5048435;28;20035;-75
2023/09/17 08:28:56;;;;;;;12.93;11.55;;;;;;;;;;5052802;28;20039;-76
2023/09/17 08:31:25;;;;;;;13.07;11.77;;;;;;;;;;5048711;28;20028;-76
2023/09/17 08:33:51;;;;;;;12.25;11.25;;;;;;;;;;5059223;28;20639;-74
2023/09/17 08:36:19;;;;;;;12.60;11.40;;;;;;;;;;5047017;28;20041;-78
2023/09/17 08:38:45;;;;;;;11.43;10.52;;;;;;;;;;5061113;28;20052;-76
2023/09/17 08:41:11;;;;;;;11.80;10.80;;;;;;;;;;5061870;28;20493;-76
2023/09/17 08:43:37;;;;;;;11.88;10.88;;;;;;;;;;5065155;28;20028;-77
2023/09/17 08:46:06;;;;;;;11.82;10.82;;;;;;;;;;5063341;28;20024;-76
2023/09/17 08:48:31;;;;;;;11.05;10.10;;;;;;;;;;5063325;28;20344;-76
2023/09/17 08:50:58;;;;;;;13.18;11.55;;;;;;;;;;5064162;28;20043;-75
2023/09/17 08:53:27;;;;;;;11.48;9.75;;;;;;;;;;5065491;28;20032;-77
2023/09/17 08:55:54;;;;;;;;;;;;;;;;;;5064397;28;20035;-76
2023/09/17 08:58:24;;;;;;;11.40;10.50;;;;;;;;;;5065127;28;19920;-76
2023/09/17 09:00:51;;;;;;;11.15;9.98;;;;;;;;;;5064936;28;20134;-76
2023/09/17 09:03:17;;;;;;;10.65;9.75;;;;;;;;;;5064986;28;20082;-75
2023/09/17 09:05:44;;;;;;;10.57;9.63;;;;;;;;;;5065825;28;20507;-76
2023/09/17 09:08:12;;;;;;;9.45;8.75;;;;;;;;;;5064602;28;20348;-76
2023/09/17 09:10:37;;;;;;;10.32;9.32;;;;;;;;;;5062537;28;20399;-75
2023/09/17 09:13:03;;;;;;;9.38;8.57;;;;;;;;;;5064990;28;20071;-76
2023/09/17 09:15:28;;;;;;;9.23;8.48;;;;;;;;;;5064839;28;20352;-76
2023/09/17 09:17:55;;;;;;;8.57;7.88;;;;;;;;;;5065098;28;20036;-78
2023/09/17 09:20:20;;;;;;;8.65;7.82;;;;;;;;;;5063437;28;20027;-77
2023/09/17 09:22:46;;;;;;;8.05;7.35;;;;;;;;;;5063442;28;20024;-78
2023/09/17 09:25:15;;;;;;;7.97;7.32;;;;;;;;;;5065757;28;20029;-74
2023/09/17 09:27:41;;;;;;;7.15;6.55;;;;;;;;;;5064082;28;20178;-76
2023/09/17 09:30:07;;;;;;;8.15;7.45;;;;;;;;;;5065066;28;20554;-77
2023/09/17 09:32:32;;;;;;;7.63;7.03;;;;;;;;;;5064001;28;20024;-75
2023/09/17 09:34:57;;;;;;;7.88;7.10;;;;;;;;;;5063936;28;20351;-74
2023/09/17 09:37:24;;;;;;;8.32;6.78;;;;;;;;;;5062944;28;20122;-75
2023/09/17 09:39:49;;;;;;;7.18;6.50;;;;;;;;;;5064324;28;20036;-77
2023/09/17 09:42:15;;;;;;;7.63;6.93;;;;;;;;;;5065016;28;20436;-77
2023/09/17 09:44:40;;;;;;;7.50;6.90;;;;;;;;;;5062576;28;20515;-76
2023/09/17 09:47:06;;;;;;;7.20;6.50;;;;;;;;;;5062575;28;20028;-76
2023/09/17 09:49:41;;;;;;;7.22;6.55;;;;;;;;;;5064707;28;20635;-75
2023/09/17 09:52:07;;;;;;;7.63;7.03;;;;;;;;;;5063330;28;20075;-75
2023/09/17 09:54:32;;;;;;;7.20;6.60;;;;;;;;;;5063333;28;20048;-77
2023/09/17 09:56:58;;;;;;;7.95;6.55;;;;;;;;;;5063591;28;20124;-76
2023/09/17 09:59:24;;;;;;;7.47;6.85;;;;;;;;;;5064307;28;20028;-76
2023/09/17 10:01:50;;;;;;;7.63;6.93;;;;;;;;;;5064153;28;20028;-74
2023/09/17 10:04:15;;;;;;;7.03;6.50;;;;;;;;;;5062857;28;20031;-75
2023/09/17 10:06:41;;;;;;;6.47;5.97;;;;;;;;;;5063251;28;20206;-77
2023/09/17 10:09:07;;;;;;;6.53;5.80;;;;;;;;;;5063275;28;20115;-76
2023/09/17 10:11:33;;;;;;;6.53;5.97;;;;;;;;;;5064204;28;20159;-76
2023/09/17 10:14:03;;;;;;;6.35;5.80;;;;;;;;;;5063416;28;20119;-77
2023/09/17 10:16:29;;;;;;;6.45;5.85;;;;;;;;;;5052371;28;20028;-76
2023/09/17 10:18:55;;;;;;;5.43;5.03;;;;;;;;;;5062816;28;20029;-75
2023/09/17 10:21:21;;;;;;;5.35;4.95;;;;;;;;;;5063150;28;20070;-75
2023/09/17 10:23:47;;;;;;;5.38;4.88;;;;;;;;;;5062797;28;20032;-75
2023/09/17 10:26:13;;;;;;;5.35;4.90;;;;;;;;;;5062951;28;20024;-76
2023/09/17 10:28:39;;;;;;;5.20;4.80;;;;;;;;;;5063480;28;20078;-76
2023/09/17 10:31:05;;;;;;;6.15;5.55;;;;;;;;;;5063627;28;20036;-77
2023/09/17 10:33:32;;;;;;;5.13;4.68;;;;;;;;;;5062459;28;20012;-75
2023/09/17 10:35:58;;;;;;;5.05;4.65;;;;;;;;;;5063194;28;21035;-75
2023/09/17 10:38:24;;;;;;;4.80;4.50;;;;;;;;;;5065187;28;20125;-74
2023/09/17 10:40:50;;;;;;;4.93;4.53;;;;;;;;;;5063863;28;20515;-74
2023/09/17 10:43:17;;;;;;;4.57;4.18;;;;;;;;;;5063099;28;20045;-74
2023/09/17 10:45:44;;;;;;;5.45;5.00;;;;;;;;;;5061900;28;20103;-75
2023/09/17 10:48:10;;;;;;;4.78;4.05;;;;;;;;;;5063644;28;20470;-76
2023/09/17 10:50:36;;;;;;;4.63;4.20;;;;;;;;;;5063146;28;20418;-73
2023/09/17 10:53:02;;;;;;;4.97;4.53;;;;;;;;;;5064144;28;20035;-75
2023/09/17 10:55:30;;;;;;;4.55;4.15;;;;;;;;;;5063213;28;20020;-76
2023/09/17 10:58:03;;;;;;;5.23;4.83;;;;;;;;;;5063103;28;20032;-74
2023/09/17 11:00:31;;;;;;;5.00;4.60;;;;;;;;;;5062767;28;20107;-77
2023/09/17 11:03:00;;;;;;;5.35;4.95;;;;;;;;;;5061917;28;20055;-75
2023/09/17 11:05:27;;;;;;;5.95;5.45;;;;;;;;;;5061746;28;20400;-76
2023/09/17 11:07:54;;;;;;;5.82;5.32;;;;;;;;;;5063072;28;20176;-76
2023/09/17 11:10:20;;;;;;;6.05;5.65;;;;;;;;;;5062416;28;20435;-76
2023/09/17 11:12:47;;;;;;;5.68;5.28;;;;;;;;;;5062744;28;20056;-75
2023/09/17 11:15:13;;;;;;;7.10;5.55;;;;;;;;;;5061879;28;20035;-75
2023/09/17 11:17:39;;;;;;;6.03;5.53;;;;;;;;;;5062061;28;20111;-77
2023/09/17 11:20:12;;;;;;;6.40;5.90;;;;;;;;;;5063051;28;20432;-76
2023/09/17 11:22:37;;;;;;;5.82;5.38;;;;;;;;;;5062213;28;20024;-76
2023/09/17 11:25:03;;;;;;;6.40;5.90;;;;;;;;;;5062832;28;20430;-76
2023/09/17 11:27:48;;;;;;;6.60;6.00;;;;;;;;;;5062122;28;20032;-76
2023/09/17 11:30:32;;;;;;;6.85;6.35;;;;;;;;;;5078219;28;20390;-80
2023/09/17 11:32:57;;;;;;;7.88;7.18;;;;;;;;;;5062051;28;20032;-74
2023/09/17 11:35:24;;;;;;;7.75;7.05;;;;;;;;;;5061715;28;20082;-75
2023/09/17 11:37:50;;;;;;;7.82;7.13;;;;;;;;;;5062005;28;20481;-76
2023/09/17 11:40:18;;;;;;;8.43;7.72;;;;;;;;;;5064269;28;20017;-75
2023/09/17 11:42:44;;;;;;;8.65;7.78;;;;;;;;;;5061860;28;20071;-76
2023/09/17 11:45:10;;;;;;;9.13;8.43;;;;;;;;;;5087167;28;20069;-76
2023/09/17 11:47:35;;;;;;;9.55;8.55;;;;;;;;;;5058938;28;20363;-76
2023/09/17 11:50:03;;;;;;;9.70;8.75;;;;;;;;;;5062135;28;20036;-75
2023/09/17 11:52:29;;;;;;;9.57;8.73;;;;;;;;;;5062689;28;20020;-75
2023/09/17 11:55:01;;;;;;;9.55;8.75;;;;;;;;;;5062321;28;20493;-74
2023/09/17 11:57:26;;;;;;;9.15;8.45;;;;;;;;;;5061696;28;20470;-74
2023/09/17 11:59:53;;;;;;;9.25;8.50;;;;;;;;;;5061640;28;20024;-75
2023/09/17 12:02:19;;;;;;;10.15;9.25;;;;;;;;;;5061583;28;20460;-76
2023/09/17 12:04:45;;;;;;;10.90;9.90;;;;;;;;;;5062536;28;20116;-76
2023/09/17 12:07:12;;;;;;;10.35;9.35;;;;;;;;;;5062229;28;20111;-76
2023/09/17 12:10:00;;;;;;;10.38;9.48;;;;;;;;;;5061615;28;20021;-76
2023/09/17 12:12:26;;;;;;;10.43;9.30;;;;;;;;;;5063445;28;20051;-76
2023/09/17 12:14:56;;;;;;;11.38;10.10;;;;;;;;;;5062454;28;20143;-74
2023/09/17 12:17:26;;;;;;;11.27;10.27;;;;;;;;;;5067127;28;20032;-76
2023/09/17 12:23:16;;;;;;;11.38;10.18;;;;;;;;;;5057418;28;20167;-76
2023/09/17 12:25:43;;;;;;;12.57;11.30;;;;;;;;;;5040116;28;20607;-75
2023/09/17 12:28:08;;;;;;;12.40;11.38;;;;;;;;;;5056178;28;20369;-75
2023/09/17 12:30:34;;;;;;;12.70;11.52;;;;;;;;;;5059263;28;20036;-75
2023/09/17 12:32:59;;;;;;;14.00;12.60;;;;;;;;;;5058734;28;20105;-74
2023/09/17 12:35:24;;;;;;;13.73;12.25;;;;;;;;;;5054795;28;20051;-75
2023/09/17 12:37:50;;;;;;;12.30;10.85;;;;;;;;;;5055584;28;20032;-77
2023/09/17 12:40:15;;;;;;;12.48;11.30;;;;;;;;;;5058484;28;20083;-77
2023/09/17 12:42:40;;;;;;;12.77;11.52;;;;;;;;;;5056684;28;20052;-75
2023/09/17 12:45:06;;;;;;;14.30;12.00;;;;;;;;;;5056381;28;20043;-75
2023/09/17 12:47:32;;;;;;;12.75;11.57;;;;;;;;;;5055989;28;20404;-76
2023/09/17 12:49:59;;;;;;;13.10;11.73;;;;;;;;;;5057115;28;20114;-75
2023/09/17 12:52:24;;;;;;;13.15;11.23;;;;;;;;;;5057206;28;20127;-75
2023/09/17 12:54:53;;;;;;;12.82;11.55;;;;;;;;;;5051864;28;20111;-76
2023/09/17 12:57:20;;;;;;;11.23;10.23;;;;;;;;;;5051588;28;20048;-76
2023/09/17 12:59:49;;;;;;;11.40;10.45;;;;;;;;;;5061028;28;20041;-76
2023/09/17 13:02:14;;;;;;;13.63;11.13;;;;;;;;;;5065054;28;20440;-76
2023/09/17 13:04:43;;;;;;;11.88;10.68;;;;;;;;;;5065355;28;20040;-77
2023/09/17 13:07:16;;;;;;;13.70;11.63;;;;;;;;;;5065532;28;21262;-76
2023/09/17 13:09:42;;;;;;;12.30;10.77;;;;;;;;;;5064704;28;20040;-76
2023/09/17 13:12:08;;;;;;;12.63;10.90;;;;;;;;;;5063849;28;20440;-77
2023/09/17 13:14:37;;;;;;;11.82;10.13;;;;;;;;;;5066180;28;20031;-74
2023/09/17 13:17:02;;;;;;;12.40;11.25;;;;;;;;;;5065220;28;20336;-74
2023/09/17 13:19:28;;;;;;;12.43;11.27;;;;;;;;;;5064192;28;20061;-77
2023/09/17 13:21:53;;;;;;;12.73;11.63;;;;;;;;;;5065553;28;20468;-76
2023/09/17 13:24:19;;;;;;;11.95;10.77;;;;;;;;;;5066078;28;20115;-75
2023/09/17 13:26:44;;;;;;;11.90;10.70;;;;;;;;;;5064480;28;20028;-75
2023/09/17 13:29:10;;;;;;;11.60;10.40;;;;;;;;;;5065619;28;20033;-76
2023/09/17 13:31:36;;;;;;;11.63;10.27;;;;;;;;;;5065053;28;20044;-75
2023/09/17 13:34:01;;;;;;;12.18;10.90;;;;;;;;;;5064819;28;20031;-76
2023/09/17 13:36:28;;;;;;;11.18;10.18;;;;;;;;;;5066152;28;20033;-76
2023/09/17 13:38:54;;;;;;;10.82;9.77;;;;;;;;;;5064612;28;20031;-76
2023/09/17 13:41:20;;;;;;;11.70;10.60;;;;;;;;;;5063801;28;20150;-75
2023/09/17 13:43:45;;;;;;;10.82;9.93;;;;;;;;;;5066077;28;20144;-74
2023/09/17 13:46:15;;;;;;;11.60;10.60;;;;;;;;;;5047062;28;20070;-76
2023/09/17 13:48:40;;;;;;;11.63;10.32;;;;;;;;;;5064053;28;20424;-75
2023/09/17 13:51:06;;;;;;;11.80;10.65;;;;;;;;;;5064858;28;20032;-75
2023/09/17 13:53:31;;;;;;;12.68;11.02;;;;;;;;;;5063652;28;20012;-74
2023/09/17 13:55:56;;;;;;;11.10;10.00;;;;;;;;;;5063696;28;20497;-75
2023/09/17 13:58:22;;;;;;;12.10;10.75;;;;;;;;;;5062804;28;20032;-75
2023/09/17 14:00:47;;;;;;;11.15;10.05;;;;;;;;;;5064102;28;20020;-75
2023/09/17 14:03:13;;;;;;;11.85;10.43;;;;;;;;;;5064405;28;20487;-77
2023/09/17 14:05:39;;;;;;;11.95;10.82;;;;;;;;;;5064534;28;20017;-75
2023/09/17 14:08:04;;;;;;;10.25;9.35;;;;;;;;;;5064445;28;20466;-76
2023/09/17 14:10:30;;;;;;;10.60;9.68;;;;;;;;;;5064911;28;20032;-77
2023/09/17 14:12:55;;;;;;;11.27;9.60;;;;;;;;;;5064777;28;20428;-74
2023/09/17 14:15:21;;;;;;;10.70;9.80;;;;;;;;;;5063762;28;20027;-74
2023/09/17 14:17:46;;;;;;;11.65;10.43;;;;;;;;;;5064266;28;20047;-74
2023/09/17 14:20:12;;;;;;;11.38;10.27;;;;;;;;;;5063963;28;20020;-77
2023/09/17 14:22:38;;;;;;;11.13;10.18;;;;;;;;;;5063683;28;20040;-77